Anchorville, MI (48004)

3:44 PM EDT on July 24, 2016 (GMT -0400)
Swan Creek | | Change Station

Elev 584 ft 42.68 °N, 82.65 °W | Updated 8 minutes ago

Mostly Cloudy
Mostly Cloudy
78.0 °F
Feels Like 80 °F
N
3.0
Wind Variable Wind from South
Gusts 4.0 mph

Today
High -- | Low -- °F
--% Chance of Precip.
Yesterday
High -- | Low -- °F
Precip. -- in
Pressure 29.93 in
Visibility 10.0 miles
Clouds Scattered Clouds 2100 ft
Mostly Cloudy 10000 ft
Mostly Cloudy 21000 ft
Heat Index 80 °F
Dew Point 75 °F
Humidity 90%
Rainfall 0.71 in
Snow Depth Not available.
6:14 AM 8:59 PM
Waning Gibbous, 73% visible
SPECI KMTC 241908Z 25008KT 10SM SCT021 BKN100 BKN210 25/22 A2993 RMK AO2A $
Pressure 29.93 in
Visibility 10.0 miles
Clouds Scattered Clouds 2100 ft
Mostly Cloudy 10000 ft
Mostly Cloudy 21000 ft
Heat Index 80 °F
Dew Point 75 °F
Humidity 90%
Rainfall 0.71 in
Snow Depth Not available.
6:14 AM 8:59 PM
Waning Gibbous, 73% visible
SPECI KMTC 241908Z 25008KT 10SM SCT021 BKN100 BKN210 25/22 A2993 RMK AO2A $

10-Day Weather Forecast

Almanac

Astronomy

Jul. 24, 2016 Rise Set
Actual Time
Civil Twilight
Nautical Twilight
Astronomical Twilight
Moon
Length of Visible Light
Length of Day
Tomorrow will be .
, % of the Moon is Illuminated

Today's Extremes

State Highs State Lows

Community

WunderPhotos

Upload Photos

1,927,176 photos uploaded!

WunderBlog® & News

Nearby

Air Quality

  Air Quality AQ Index Pollutant
Not available.

Snow Depth

Station Depth Elevation

Earthquake Activity

City Distance Mag. Time & Date
Minimum magnitude displayed is 2.5.

Coastal Water Temperatures

Place Temperature

Stations

Nearby Weather Stations

Station Location Temp. Windchill Dew Point Humidity Wind Precip. Elev Updated Type
                   

Watches & Warnings

There are currently no watches in effect.